METAR Data
IDs: Format: Raw Decoded Include TAF

Data at: 1252 UTC 23 Sep 2018

KSGT 231156Z AUTO 03008KT 10SM OVC004 18/18 A2998 RMK AO2 SLP152 60001 70052 T01830178 10189 20183 55001
KSGT 231056Z AUTO 02009KT 10SM OVC004 18/18 A2998 RMK AO2 SLP151 T01830178
KSGT 230956Z AUTO 02008KT 10SM OVC004 18/18 A2997 RMK AO2 RAB14E51 SLP149 P0000 T01830178
KSGT 230856Z AUTO 36008KT 10SM OVC004 19/18 A2999 RMK AO2 SLP153 60001 T01890183 55006
KSGT 230756Z AUTO 03007KT 10SM OVC004 19/18 A2998 RMK AO2 RAB11E54 SLP152 P0001 T01890183
KSGT 230726Z AUTO 04007KT 10SM -RA OVC004 19/18 A2999 RMK AO2 RAB11 P0000
KSGT 230656Z AUTO 05005KT 10SM OVC006 19/18 A2999 RMK AO2 RAE24 SLP156 P0000 T01890183
KSGT 230556Z AUTO 04008KT 10SM -RA OVC006 19/18 A3000 RMK AO2 SLP159 P0001 60008 T01890178 10189 20183 402280178 58011
KSGT 230456Z AUTO 04006KT 10SM -RA OVC006 19/18 A3002 RMK AO2 RAB53 SLP165 P0000 T01890183
KSGT 230356Z AUTO 04007KT 10SM OVC006 19/18 A3003 RMK AO2 RAE44 SLP167 P0001 T01890183
KSGT 230256Z AUTO 06009KT 10SM -RA OVC008 19/18 A3003 RMK AO2 SLP169 P0004 60006 T01890178 50008
KSGT 230156Z AUTO 05008KT 10SM -RA OVC008 18/18 A3004 RMK AO2 SLP171 P0001 T01830178
KSGT 230056Z AUTO 04010KT 10SM -RA OVC008 18/18 A3002 RMK AO2 SLP164 P0001 T01830178
KSGT 222356Z AUTO 04012KT 10SM -RA OVC008 18/18 A3001 RMK AO2 SLP162 P0002 60009 T01830178 10189 20183 58004
KSGT 222256Z AUTO 04010KT 10SM -RA BKN008 BKN013 OVC050 18/18 A3002 RMK AO2 SLP165 P0004 T01830178
KSGT 222156Z AUTO 04011KT 10SM -RA OVC008 18/18 A3003 RMK AO2 RAB25 SLP168 P0001 T01830178
KSGT 222056Z AUTO 03011KT 10SM OVC008 19/18 A3002 RMK AO2 RAE40 SLP167 P0001 60002 T01890178 56018
KSGT 221956Z AUTO 02013KT 10SM -RA OVC006 18/18 A3004 RMK AO2 SLP170 P0000 T01830178
KSGT 221856Z AUTO 03011KT 10SM -RA OVC006 18/18 A3005 RMK AO2 SLP176 P0001 T01830178
KSGT 221756Z AUTO 02013KT 10SM -RA OVC006 18/17 A3008 RMK AO2 SLP184 P0002 60034 T01830172 10183 20178 58004
KSGT 221656Z AUTO 02009KT 10SM -RA OVC006 18/17 A3010 RMK AO2 CIG 005V008 SLP190 P0004 T01830172
KSGT 221556Z AUTO 02012KT 10SM -RA OVC008 18/17 A3010 RMK AO2 RAB21 SLP192 P0000 T01830172
KSGT 221456Z AUTO 03011KT 10SM OVC008 18/17 A3009 RMK AO2 RAE40 SLP188 P0000 60028 T01830172 51009
KSGT 221356Z AUTO 03012KT 10SM -RA OVC008 18/17 A3008 RMK AO2 CIG 006V011 SLP185 P0006 T01780172
KSGT 221256Z AUTO 03012KT 10SM -RA OVC008 18/17 A3008 RMK AO2 RAB00 CIG 006V012 SLP184 P0022 T01780167
KSGT 221156Z AUTO 03015KT 10SM OVC010 18/17 A3006 RMK AO2 CIG 009V014 SLP179 60052 70106 T01830172 10228 20183 53006
KSGT 221140Z AUTO 03015KT 10SM OVC010 19/18 A3006 RMK AO2
KSGT 221107Z AUTO 03012KT 10SM BKN008 OVC018 20/19 A3006 RMK AO2
KSGT 221056Z AUTO 05012KT 10SM FEW010 OVC018 20/18 A3005 RMK AO2 SLP176 T02000183
KSGT 221036Z AUTO 04018G21KT 10SM SCT010 OVC016 21/19 A3004 RMK AO2
KSGT 221031Z AUTO 03019KT 10SM BKN008 OVC016 21/19 A3004 RMK AO2 CIG 005V011
KSGT 221011Z AUTO 02014G20KT 10SM BKN005 OVC020 22/21 A3004 RMK AO2 CIG 004V009
KSGT 220956Z AUTO 02010KT 10SM FEW009 OVC020 22/21 A3003 RMK AO2 RAE47 SLP170 P0001 T02170211
KSGT 220937Z AUTO 02013G19KT 10SM -RA SCT010 OVC020 22/21 A3004 RMK AO2 P0001
KSGT 220856Z AUTO 36008KT 10SM -RA OVC010 23/22 A3004 RMK AO2 SLP172 P0004 60051 T02280217 56009
KSGT 220826Z AUTO 36008KT 10SM -RA BKN010 BKN022 OVC050 23/22 A3005 RMK AO2 P0001
KSGT 220756Z AUTO 34006KT 10SM -RA FEW006 BKN039 OVC060 22/22 A3005 RMK AO2 SLP173 P0017 T02220222
KSGT 220742Z AUTO 31005KT 10SM -RA FEW004 BKN047 OVC070 22/22 A3005 RMK AO2 P0017
KSGT 220656Z AUTO 36006KT 7SM +RA FEW036 BKN044 OVC070 22/22 A3006 RMK AO2 SLP178 P0030 T02170217
KSGT 220556Z AUTO 34006KT 8SM +RA FEW013 SCT020 OVC060 22/22 A3007 RMK AO2 SLP182 P0027 60054 T02220217 10261 20222 403440222 58005
KSGT 220522Z AUTO 00000KT 9SM RA FEW005 BKN018 OVC046 22/22 A3009 RMK AO2 LTG DSNT SE P0012
KSGT 220456Z AUTO 34005KT 9SM RA FEW034 BKN055 OVC065 22/22 A3008 RMK AO2 LTG DSNT N AND NE AND S TSB20E47 SLP186 P0023 T02220217
KSGT 220453Z AUTO 35006KT 8SM +RA FEW032 BKN055 OVC065 22/22 A3008 RMK AO2 LTG DSNT N AND NE TSB20E47 P0021
KSGT 220426Z AUTO 30005KT 10SM VCTS RA FEW048 OVC090 22/22 A3008 RMK AO2 LTG DSNT N AND S AND SW TSB20 P0007
KSGT 220405Z AUTO 30007KT 10SM RA SCT020 BKN060 OVC100 22/22 A3009 RMK AO2 LTG DSNT ALQDS P0002
KSGT 220356Z AUTO 32007KT 10SM -RA SCT014 BKN025 OVC100 23/22 A3009 RMK AO2 LTG DSNT SW-N TSB00E12B17E32B37E52RAB28 SLP187 P0004 T02280217
KSGT 220342Z AUTO 28014G19KT 10SM TSRA BKN016 BKN070 OVC090 23/22 A3009 RMK AO2 LTG DSNT SW-N TSB00E12B17E32B37RAB28 CIG 009V022 P0002
KSGT 220336Z AUTO 28014G19KT 10SM -RA BKN014 BKN070 OVC085 24/23 A3009 RMK AO2 LTG DSNT SW-NW TSB00E12B17E32RAB28 P0000
KSGT 220317Z AUTO 33006KT 10SM VCTS FEW048 BKN070 BKN095 24/23 A3006 RMK AO2 LTG DSNT SW-NW TSB00E12B17
KSGT 220306Z AUTO 02004KT 10SM VCTS SCT050 SCT065 SCT100 24/23 A3005 RMK AO2 LTG DSNT SW-NW TSB00
KSGT 220256Z AUTO 02003KT 10SM SCT050 SCT065 BKN100 24/23 A3005 RMK AO2 LTG DSNT SW-NW SLP175 60000 T02440228 53018
KSGT 220156Z AUTO 05005KT 10SM FEW055 24/23 A3003 RMK AO2 LTG DSNT NW RAB25E50 SLP165 P0000 T02390228
KSGT 220056Z AUTO 08009KT 10SM FEW055 SCT080 26/23 A3001 RMK AO2 LTG DSNT S AND SW SLP161 T02610233